sensor_id;sensor_type;location;lat;lon;timestamp;pressure;altitude;pressure_sealevel;temperature
20092;BMP180;10205;49.678;6.560;2023-05-07T00:01:51;99858.00;;;21.80
20092;BMP180;10205;49.678;6.560;2023-05-07T00:04:18;99852.00;;;21.70
20092;BMP180;10205;49.678;6.560;2023-05-07T00:06:45;99867.00;;;21.70
20092;BMP180;10205;49.678;6.560;2023-05-07T00:09:12;99864.00;;;21.60
20092;BMP180;10205;49.678;6.560;2023-05-07T00:11:39;99863.00;;;21.60
20092;BMP180;10205;49.678;6.560;2023-05-07T00:14:06;99863.00;;;21.60
20092;BMP180;10205;49.678;6.560;2023-05-07T00:16:33;99861.00;;;21.50
20092;BMP180;10205;49.678;6.560;2023-05-07T00:19:03;99860.00;;;21.50
20092;BMP180;10205;49.678;6.560;2023-05-07T00:21:30;99855.00;;;21.40
20092;BMP180;10205;49.678;6.560;2023-05-07T00:23:57;99857.00;;;21.40
20092;BMP180;10205;49.678;6.560;2023-05-07T00:26:24;99851.00;;;21.40
20092;BMP180;10205;49.678;6.560;2023-05-07T00:28:51;99851.00;;;21.40
20092;BMP180;10205;49.678;6.560;2023-05-07T00:31:18;99855.00;;;21.30
20092;BMP180;10205;49.678;6.560;2023-05-07T00:33:45;99842.00;;;21.30
20092;BMP180;10205;49.678;6.560;2023-05-07T00:36:14;99851.00;;;21.20
20092;BMP180;10205;49.678;6.560;2023-05-07T00:38:41;99855.00;;;21.20
20092;BMP180;10205;49.678;6.560;2023-05-07T00:41:08;99844.00;;;21.20
20092;BMP180;10205;49.678;6.560;2023-05-07T00:43:35;99842.00;;;21.10
20092;BMP180;10205;49.678;6.560;2023-05-07T00:46:05;99844.00;;;21.10
20092;BMP180;10205;49.678;6.560;2023-05-07T00:48:35;99841.00;;;21.00
20092;BMP180;10205;49.678;6.560;2023-05-07T00:51:03;99847.00;;;21.00
20092;BMP180;10205;49.678;6.560;2023-05-07T00:53:32;99848.00;;;21.00
20092;BMP180;10205;49.678;6.560;2023-05-07T00:55:59;99848.00;;;20.90
20092;BMP180;10205;49.678;6.560;2023-05-07T00:58:26;99840.00;;;20.90
20092;BMP180;10205;49.678;6.560;2023-05-07T01:00:53;99836.00;;;20.90
20092;BMP180;10205;49.678;6.560;2023-05-07T01:03:21;99842.00;;;20.80
20092;BMP180;10205;49.678;6.560;2023-05-07T01:05:50;99839.00;;;20.80
20092;BMP180;10205;49.678;6.560;2023-05-07T01:08:18;99838.00;;;20.80
20092;BMP180;10205;49.678;6.560;2023-05-07T01:10:47;99843.00;;;20.70
20092;BMP180;10205;49.678;6.560;2023-05-07T01:13:14;99839.00;;;20.70
20092;BMP180;10205;49.678;6.560;2023-05-07T01:15:43;99847.00;;;20.60
20092;BMP180;10205;49.678;6.560;2023-05-07T01:18:10;99848.00;;;20.60
20092;BMP180;10205;49.678;6.560;2023-05-07T01:20:37;99842.00;;;20.60
20092;BMP180;10205;49.678;6.560;2023-05-07T01:23:10;99837.00;;;20.50
20092;BMP180;10205;49.678;6.560;2023-05-07T01:25:37;99835.00;;;20.50
20092;BMP180;10205;49.678;6.560;2023-05-07T01:28:04;99837.00;;;20.50
20092;BMP180;10205;49.678;6.560;2023-05-07T01:30:34;99847.00;;;20.40
20092;BMP180;10205;49.678;6.560;2023-05-07T01:33:08;99834.00;;;20.40
20092;BMP180;10205;49.678;6.560;2023-05-07T01:35:45;99841.00;;;20.30
20092;BMP180;10205;49.678;6.560;2023-05-07T01:38:16;99835.00;;;20.30
20092;BMP180;10205;49.678;6.560;2023-05-07T01:40:43;99837.00;;;20.30
20092;BMP180;10205;49.678;6.560;2023-05-07T01:43:11;99840.00;;;20.20
20092;BMP180;10205;49.678;6.560;2023-05-07T01:45:38;99842.00;;;20.20
20092;BMP180;10205;49.678;6.560;2023-05-07T01:48:07;99836.00;;;20.20
20092;BMP180;10205;49.678;6.560;2023-05-07T01:50:36;99835.00;;;20.10
20092;BMP180;10205;49.678;6.560;2023-05-07T01:53:04;99839.00;;;20.10
20092;BMP180;10205;49.678;6.560;2023-05-07T01:55:32;99835.00;;;20.00
20092;BMP180;10205;49.678;6.560;2023-05-07T01:57:59;99836.00;;;20.00
20092;BMP180;10205;49.678;6.560;2023-05-07T02:00:26;99837.00;;;20.00
20092;BMP180;10205;49.678;6.560;2023-05-07T02:02:54;99841.00;;;19.90
20092;BMP180;10205;49.678;6.560;2023-05-07T02:05:22;99843.00;;;19.90
20092;BMP180;10205;49.678;6.560;2023-05-07T02:07:49;99837.00;;;19.90
20092;BMP180;10205;49.678;6.560;2023-05-07T02:10:17;99839.00;;;19.80
20092;BMP180;10205;49.678;6.560;2023-05-07T02:12:45;99837.00;;;19.80
20092;BMP180;10205;49.678;6.560;2023-05-07T02:15:15;99836.00;;;19.80
20092;BMP180;10205;49.678;6.560;2023-05-07T02:18:03;99835.00;;;19.70
20092;BMP180;10205;49.678;6.560;2023-05-07T02:20:30;99834.00;;;19.70
20092;BMP180;10205;49.678;6.560;2023-05-07T02:22:57;99834.00;;;19.70
20092;BMP180;10205;49.678;6.560;2023-05-07T02:25:24;99839.00;;;19.60
20092;BMP180;10205;49.678;6.560;2023-05-07T02:27:53;99844.00;;;19.60
20092;BMP180;10205;49.678;6.560;2023-05-07T02:30:20;99842.00;;;19.60
20092;BMP180;10205;49.678;6.560;2023-05-07T02:32:47;99834.00;;;19.50
20092;BMP180;10205;49.678;6.560;2023-05-07T02:35:15;99843.00;;;19.50
20092;BMP180;10205;49.678;6.560;2023-05-07T02:37:42;99841.00;;;19.50
20092;BMP180;10205;49.678;6.560;2023-05-07T02:40:11;99845.00;;;19.40
20092;BMP180;10205;49.678;6.560;2023-05-07T02:42:38;99839.00;;;19.40
20092;BMP180;10205;49.678;6.560;2023-05-07T02:45:09;99838.00;;;19.40
20092;BMP180;10205;49.678;6.560;2023-05-07T02:47:36;99850.00;;;19.30
20092;BMP180;10205;49.678;6.560;2023-05-07T02:50:05;99845.00;;;19.30
20092;BMP180;10205;49.678;6.560;2023-05-07T02:52:33;99849.00;;;19.30
20092;BMP180;10205;49.678;6.560;2023-05-07T02:55:00;99841.00;;;19.20
20092;BMP180;10205;49.678;6.560;2023-05-07T02:57:28;99840.00;;;19.20
20092;BMP180;10205;49.678;6.560;2023-05-07T02:59:55;99841.00;;;19.20
20092;BMP180;10205;49.678;6.560;2023-05-07T03:02:23;99834.00;;;19.10
20092;BMP180;10205;49.678;6.560;2023-05-07T03:04:50;99839.00;;;19.10
20092;BMP180;10205;49.678;6.560;2023-05-07T03:07:18;99831.00;;;19.10
20092;BMP180;10205;49.678;6.560;2023-05-07T03:09:45;99836.00;;;19.00
20092;BMP180;10205;49.678;6.560;2023-05-07T03:12:12;99836.00;;;19.00
20092;BMP180;10205;49.678;6.560;2023-05-07T03:14:39;99829.00;;;19.00
20092;BMP180;10205;49.678;6.560;2023-05-07T03:17:07;99832.00;;;19.00
20092;BMP180;10205;49.678;6.560;2023-05-07T03:19:36;99841.00;;;18.90
20092;BMP180;10205;49.678;6.560;2023-05-07T03:22:03;99831.00;;;18.90
20092;BMP180;10205;49.678;6.560;2023-05-07T03:24:30;99825.00;;;18.80
20092;BMP180;10205;49.678;6.560;2023-05-07T03:26:57;99829.00;;;18.80
20092;BMP180;10205;49.678;6.560;2023-05-07T03:29:24;99825.00;;;18.80
20092;BMP180;10205;49.678;6.560;2023-05-07T03:31:51;99825.00;;;18.80
20092;BMP180;10205;49.678;6.560;2023-05-07T03:34:18;99826.00;;;18.70
20092;BMP180;10205;49.678;6.560;2023-05-07T03:36:49;99826.00;;;18.70
20092;BMP180;10205;49.678;6.560;2023-05-07T03:39:16;99827.00;;;18.70
20092;BMP180;10205;49.678;6.560;2023-05-07T03:41:43;99826.00;;;18.60
20092;BMP180;10205;49.678;6.560;2023-05-07T03:44:10;99826.00;;;18.60
20092;BMP180;10205;49.678;6.560;2023-05-07T03:46:38;99822.00;;;18.60
20092;BMP180;10205;49.678;6.560;2023-05-07T03:49:05;99818.00;;;18.50
20092;BMP180;10205;49.678;6.560;2023-05-07T03:51:32;99820.00;;;18.50
20092;BMP180;10205;49.678;6.560;2023-05-07T03:54:01;99826.00;;;18.50
20092;BMP180;10205;49.678;6.560;2023-05-07T03:56:31;99827.00;;;18.50
20092;BMP180;10205;49.678;6.560;2023-05-07T03:58:58;99828.00;;;18.40
20092;BMP180;10205;49.678;6.560;2023-05-07T04:01:25;99825.00;;;18.40
20092;BMP180;10205;49.678;6.560;2023-05-07T04:03:52;99827.00;;;18.40
20092;BMP180;10205;49.678;6.560;2023-05-07T04:06:19;99828.00;;;18.30
20092;BMP180;10205;49.678;6.560;2023-05-07T04:08:46;99833.00;;;18.30
20092;BMP180;10205;49.678;6.560;2023-05-07T04:11:15;99819.00;;;18.30
20092;BMP180;10205;49.678;6.560;2023-05-07T04:13:42;99841.00;;;18.30
20092;BMP180;10205;49.678;6.560;2023-05-07T04:16:09;99834.00;;;18.20
20092;BMP180;10205;49.678;6.560;2023-05-07T04:18:36;99838.00;;;18.20
20092;BMP180;10205;49.678;6.560;2023-05-07T04:21:04;99832.00;;;18.20
20092;BMP180;10205;49.678;6.560;2023-05-07T04:23:31;99831.00;;;18.20
20092;BMP180;10205;49.678;6.560;2023-05-07T04:25:58;99854.00;;;18.10
20092;BMP180;10205;49.678;6.560;2023-05-07T04:28:27;99845.00;;;18.10
20092;BMP180;10205;49.678;6.560;2023-05-07T04:30:54;99836.00;;;18.10
20092;BMP180;10205;49.678;6.560;2023-05-07T04:33:21;99839.00;;;18.10
20092;BMP180;10205;49.678;6.560;2023-05-07T04:35:48;99862.00;;;18.10
20092;BMP180;10205;49.678;6.560;2023-05-07T04:38:15;99839.00;;;18.00
20092;BMP180;10205;49.678;6.560;2023-05-07T04:40:44;99830.00;;;18.00
20092;BMP180;10205;49.678;6.560;2023-05-07T04:43:12;99834.00;;;18.00
20092;BMP180;10205;49.678;6.560;2023-05-07T04:45:41;99817.00;;;17.90
20092;BMP180;10205;49.678;6.560;2023-05-07T04:48:09;99839.00;;;17.90
20092;BMP180;10205;49.678;6.560;2023-05-07T04:50:36;99844.00;;;17.90
20092;BMP180;10205;49.678;6.560;2023-05-07T04:53:03;99832.00;;;17.90
20092;BMP180;10205;49.678;6.560;2023-05-07T04:55:30;99833.00;;;17.90
20092;BMP180;10205;49.678;6.560;2023-05-07T04:57:57;99836.00;;;17.80
20092;BMP180;10205;49.678;6.560;2023-05-07T05:00:26;99834.00;;;17.80
20092;BMP180;10205;49.678;6.560;2023-05-07T05:02:54;99840.00;;;17.80
20092;BMP180;10205;49.678;6.560;2023-05-07T05:05:21;99847.00;;;17.80
20092;BMP180;10205;49.678;6.560;2023-05-07T05:07:48;99854.00;;;17.80
20092;BMP180;10205;49.678;6.560;2023-05-07T05:10:17;99846.00;;;17.70
20092;BMP180;10205;49.678;6.560;2023-05-07T05:12:44;99836.00;;;17.70
20092;BMP180;10205;49.678;6.560;2023-05-07T05:15:12;99846.00;;;17.70
20092;BMP180;10205;49.678;6.560;2023-05-07T05:17:39;99846.00;;;17.70
20092;BMP180;10205;49.678;6.560;2023-05-07T05:20:09;99849.00;;;17.70
20092;BMP180;10205;49.678;6.560;2023-05-07T05:22:37;99855.00;;;17.70
20092;BMP180;10205;49.678;6.560;2023-05-07T05:25:05;99854.00;;;17.60
20092;BMP180;10205;49.678;6.560;2023-05-07T05:27:32;99858.00;;;17.60
20092;BMP180;10205;49.678;6.560;2023-05-07T05:29:59;99860.00;;;17.60
20092;BMP180;10205;49.678;6.560;2023-05-07T05:32:26;99861.00;;;17.60
20092;BMP180;10205;49.678;6.560;2023-05-07T05:34:53;99862.00;;;17.60
20092;BMP180;10205;49.678;6.560;2023-05-07T05:37:22;99865.00;;;17.60
20092;BMP180;10205;49.678;6.560;2023-05-07T05:39:49;99866.00;;;17.60
20092;BMP180;10205;49.678;6.560;2023-05-07T05:42:16;99861.00;;;17.50
20092;BMP180;10205;49.678;6.560;2023-05-07T05:44:43;99869.00;;;17.50
20092;BMP180;10205;49.678;6.560;2023-05-07T05:47:10;99874.00;;;17.50
20092;BMP180;10205;49.678;6.560;2023-05-07T05:49:37;99871.00;;;17.50
20092;BMP180;10205;49.678;6.560;2023-05-07T05:52:04;99866.00;;;17.50
20092;BMP180;10205;49.678;6.560;2023-05-07T05:54:33;99871.00;;;17.50
20092;BMP180;10205;49.678;6.560;2023-05-07T05:57:00;99865.00;;;17.50
20092;BMP180;10205;49.678;6.560;2023-05-07T05:59:29;99868.00;;;17.50
20092;BMP180;10205;49.678;6.560;2023-05-07T06:01:56;99874.00;;;17.50
20092;BMP180;10205;49.678;6.560;2023-05-07T06:04:23;99876.00;;;17.50
20092;BMP180;10205;49.678;6.560;2023-05-07T06:06:50;99875.00;;;17.50
20092;BMP180;10205;49.678;6.560;2023-05-07T06:09:18;99880.00;;;17.50
20092;BMP180;10205;49.678;6.560;2023-05-07T06:11:46;99882.00;;;17.50
20092;BMP180;10205;49.678;6.560;2023-05-07T06:14:13;99880.00;;;17.50
20092;BMP180;10205;49.678;6.560;2023-05-07T06:16:43;99870.00;;;17.50
20092;BMP180;10205;49.678;6.560;2023-05-07T06:19:10;99886.00;;;17.50
20092;BMP180;10205;49.678;6.560;2023-05-07T06:21:38;99893.00;;;17.50
20092;BMP180;10205;49.678;6.560;2023-05-07T06:24:06;99904.00;;;17.50
20092;BMP180;10205;49.678;6.560;2023-05-07T06:26:33;99893.00;;;17.50
20092;BMP180;10205;49.678;6.560;2023-05-07T06:29:02;99894.00;;;17.50
20092;BMP180;10205;49.678;6.560;2023-05-07T06:31:30;99897.00;;;17.50
20092;BMP180;10205;49.678;6.560;2023-05-07T06:33:58;99897.00;;;17.50
20092;BMP180;10205;49.678;6.560;2023-05-07T06:36:25;99899.00;;;17.50
20092;BMP180;10205;49.678;6.560;2023-05-07T06:38:53;99909.00;;;17.50
20092;BMP180;10205;49.678;6.560;2023-05-07T06:41:20;99915.00;;;17.50
20092;BMP180;10205;49.678;6.560;2023-05-07T06:43:47;99906.00;;;17.60
20092;BMP180;10205;49.678;6.560;2023-05-07T06:46:15;99906.00;;;17.60
20092;BMP180;10205;49.678;6.560;2023-05-07T06:48:43;99894.00;;;17.60
20092;BMP180;10205;49.678;6.560;2023-05-07T06:51:10;99915.00;;;17.60
20092;BMP180;10205;49.678;6.560;2023-05-07T06:53:37;99910.00;;;17.60
20092;BMP180;10205;49.678;6.560;2023-05-07T06:56:04;99904.00;;;17.60
20092;BMP180;10205;49.678;6.560;2023-05-07T06:58:32;99905.00;;;17.60
20092;BMP180;10205;49.678;6.560;2023-05-07T07:01:00;99909.00;;;17.70
20092;BMP180;10205;49.678;6.560;2023-05-07T07:03:30;99900.00;;;17.70
20092;BMP180;10205;49.678;6.560;2023-05-07T07:05:57;99903.00;;;17.70
20092;BMP180;10205;49.678;6.560;2023-05-07T07:08:24;99908.00;;;17.80
20092;BMP180;10205;49.678;6.560;2023-05-07T07:10:51;99894.00;;;17.80
20092;BMP180;10205;49.678;6.560;2023-05-07T07:13:18;99888.00;;;17.80
20092;BMP180;10205;49.678;6.560;2023-05-07T07:15:45;99882.00;;;17.80
20092;BMP180;10205;49.678;6.560;2023-05-07T07:18:12;99888.00;;;17.90
20092;BMP180;10205;49.678;6.560;2023-05-07T07:20:41;99891.00;;;17.90
20092;BMP180;10205;49.678;6.560;2023-05-07T07:23:10;99887.00;;;17.90
20092;BMP180;10205;49.678;6.560;2023-05-07T07:25:37;99887.00;;;17.90
20092;BMP180;10205;49.678;6.560;2023-05-07T07:28:05;99876.00;;;18.00
20092;BMP180;10205;49.678;6.560;2023-05-07T07:30:32;99881.00;;;18.00
20092;BMP180;10205;49.678;6.560;2023-05-07T07:32:59;99881.00;;;18.10
20092;BMP180;10205;49.678;6.560;2023-05-07T07:35:28;99890.00;;;18.10
20092;BMP180;10205;49.678;6.560;2023-05-07T07:37:57;99888.00;;;18.10
20092;BMP180;10205;49.678;6.560;2023-05-07T07:40:24;99887.00;;;18.10
20092;BMP180;10205;49.678;6.560;2023-05-07T07:42:51;99879.00;;;18.20
20092;BMP180;10205;49.678;6.560;2023-05-07T07:45:19;99876.00;;;18.20
20092;BMP180;10205;49.678;6.560;2023-05-07T07:47:46;99873.00;;;18.30
20092;BMP180;10205;49.678;6.560;2023-05-07T07:50:13;99887.00;;;18.30
20092;BMP180;10205;49.678;6.560;2023-05-07T07:52:41;99884.00;;;18.30
20092;BMP180;10205;49.678;6.560;2023-05-07T07:55:10;99894.00;;;18.40
20092;BMP180;10205;49.678;6.560;2023-05-07T07:57:37;99892.00;;;18.40
20092;BMP180;10205;49.678;6.560;2023-05-07T08:00:06;99881.00;;;18.40
20092;BMP180;10205;49.678;6.560;2023-05-07T08:02:34;99878.00;;;18.50
20092;BMP180;10205;49.678;6.560;2023-05-07T08:05:02;99881.00;;;18.60
20092;BMP180;10205;49.678;6.560;2023-05-07T08:07:29;99889.00;;;18.60
20092;BMP180;10205;49.678;6.560;2023-05-07T08:09:57;99883.00;;;18.70
20092;BMP180;10205;49.678;6.560;2023-05-07T08:12:26;99884.00;;;18.70
20092;BMP180;10205;49.678;6.560;2023-05-07T08:14:53;99882.00;;;18.80
20092;BMP180;10205;49.678;6.560;2023-05-07T08:17:20;99886.00;;;18.80
20092;BMP180;10205;49.678;6.560;2023-05-07T08:19:47;99889.00;;;18.90
20092;BMP180;10205;49.678;6.560;2023-05-07T08:22:15;99883.00;;;18.90
20092;BMP180;10205;49.678;6.560;2023-05-07T08:24:43;99884.00;;;19.00
20092;BMP180;10205;49.678;6.560;2023-05-07T08:27:10;99886.00;;;19.10
20092;BMP180;10205;49.678;6.560;2023-05-07T08:29:39;99886.00;;;19.10
20092;BMP180;10205;49.678;6.560;2023-05-07T08:32:06;99887.00;;;19.20
20092;BMP180;10205;49.678;6.560;2023-05-07T08:34:33;99898.00;;;19.20
20092;BMP180;10205;49.678;6.560;2023-05-07T08:37:00;99881.00;;;19.30
20092;BMP180;10205;49.678;6.560;2023-05-07T08:39:27;99886.00;;;19.30
20092;BMP180;10205;49.678;6.560;2023-05-07T08:41:55;99882.00;;;19.40
20092;BMP180;10205;49.678;6.560;2023-05-07T08:44:26;99886.00;;;19.40
20092;BMP180;10205;49.678;6.560;2023-05-07T08:46:56;99885.00;;;19.50
20092;BMP180;10205;49.678;6.560;2023-05-07T08:49:24;99884.00;;;19.50
20092;BMP180;10205;49.678;6.560;2023-05-07T08:51:52;99888.00;;;19.60
20092;BMP180;10205;49.678;6.560;2023-05-07T08:54:21;99876.00;;;19.60
20092;BMP180;10205;49.678;6.560;2023-05-07T08:56:48;99877.00;;;19.70
20092;BMP180;10205;49.678;6.560;2023-05-07T08:59:15;99879.00;;;19.70
20092;BMP180;10205;49.678;6.560;2023-05-07T09:01:42;99887.00;;;19.80
20092;BMP180;10205;49.678;6.560;2023-05-07T09:04:12;99885.00;;;19.80
20092;BMP180;10205;49.678;6.560;2023-05-07T09:06:39;99889.00;;;19.90
20092;BMP180;10205;49.678;6.560;2023-05-07T09:09:07;99885.00;;;19.90
20092;BMP180;10205;49.678;6.560;2023-05-07T09:11:35;99880.00;;;20.00
20092;BMP180;10205;49.678;6.560;2023-05-07T09:14:02;99880.00;;;20.00
20092;BMP180;10205;49.678;6.560;2023-05-07T09:16:31;99878.00;;;20.10
20092;BMP180;10205;49.678;6.560;2023-05-07T09:18:59;99884.00;;;20.20
20092;BMP180;10205;49.678;6.560;2023-05-07T09:21:28;99885.00;;;20.20
20092;BMP180;10205;49.678;6.560;2023-05-07T09:23:55;99883.00;;;20.30
20092;BMP180;10205;49.678;6.560;2023-05-07T09:26:24;99890.00;;;20.30
20092;BMP180;10205;49.678;6.560;2023-05-07T09:28:52;99879.00;;;20.40
20092;BMP180;10205;49.678;6.560;2023-05-07T09:31:20;99883.00;;;20.50
20092;BMP180;10205;49.678;6.560;2023-05-07T09:33:48;99889.00;;;20.50
20092;BMP180;10205;49.678;6.560;2023-05-07T09:36:16;99885.00;;;20.60
20092;BMP180;10205;49.678;6.560;2023-05-07T09:38:45;99884.00;;;20.60
20092;BMP180;10205;49.678;6.560;2023-05-07T09:41:13;99899.00;;;20.70
20092;BMP180;10205;49.678;6.560;2023-05-07T09:43:40;99888.00;;;20.70
20092;BMP180;10205;49.678;6.560;2023-05-07T09:46:12;99888.00;;;20.80
20092;BMP180;10205;49.678;6.560;2023-05-07T09:48:41;99879.00;;;20.90
20092;BMP180;10205;49.678;6.560;2023-05-07T09:51:21;99891.00;;;20.90
20092;BMP180;10205;49.678;6.560;2023-05-07T09:53:52;99888.00;;;21.00
20092;BMP180;10205;49.678;6.560;2023-05-07T09:56:20;99883.00;;;21.10
20092;BMP180;10205;49.678;6.560;2023-05-07T09:58:49;99876.00;;;21.10
20092;BMP180;10205;49.678;6.560;2023-05-07T10:01:19;99864.00;;;21.20
20092;BMP180;10205;49.678;6.560;2023-05-07T10:03:51;99868.00;;;21.30
20092;BMP180;10205;49.678;6.560;2023-05-07T10:06:19;99852.00;;;21.40
20092;BMP180;10205;49.678;6.560;2023-05-07T10:08:48;99867.00;;;21.40
20092;BMP180;10205;49.678;6.560;2023-05-07T10:11:18;99861.00;;;21.50
20092;BMP180;10205;49.678;6.560;2023-05-07T10:13:47;99860.00;;;21.60
20092;BMP180;10205;49.678;6.560;2023-05-07T10:16:15;99879.00;;;21.60
20092;BMP180;10205;49.678;6.560;2023-05-07T10:18:43;99863.00;;;21.70
20092;BMP180;10205;49.678;6.560;2023-05-07T10:21:15;99868.00;;;21.80
20092;BMP180;10205;49.678;6.560;2023-05-07T10:23:51;99881.00;;;21.80
20092;BMP180;10205;49.678;6.560;2023-05-07T10:26:23;99873.00;;;21.90
20092;BMP180;10205;49.678;6.560;2023-05-07T10:28:57;99879.00;;;22.00
20092;BMP180;10205;49.678;6.560;2023-05-07T10:31:48;99874.00;;;22.00
20092;BMP180;10205;49.678;6.560;2023-05-07T10:34:21;99872.00;;;22.10
20092;BMP180;10205;49.678;6.560;2023-05-07T10:36:51;99879.00;;;22.10
20092;BMP180;10205;49.678;6.560;2023-05-07T10:39:20;99870.00;;;22.20
20092;BMP180;10205;49.678;6.560;2023-05-07T10:41:49;99885.00;;;22.20
20092;BMP180;10205;49.678;6.560;2023-05-07T10:44:27;99872.00;;;22.30
20092;BMP180;10205;49.678;6.560;2023-05-07T10:47:06;99865.00;;;22.40
20092;BMP180;10205;49.678;6.560;2023-05-07T10:49:36;99873.00;;;22.40
20092;BMP180;10205;49.678;6.560;2023-05-07T10:52:15;99882.00;;;22.50
20092;BMP180;10205;49.678;6.560;2023-05-07T10:54:43;99874.00;;;22.50
20092;BMP180;10205;49.678;6.560;2023-05-07T10:57:36;99877.00;;;22.60
20092;BMP180;10205;49.678;6.560;2023-05-07T11:00:42;99884.00;;;22.60
20092;BMP180;10205;49.678;6.560;2023-05-07T11:03:10;99878.00;;;22.70
20092;BMP180;10205;49.678;6.560;2023-05-07T11:05:38;99870.00;;;22.70
20092;BMP180;10205;49.678;6.560;2023-05-07T11:08:05;99864.00;;;22.80
20092;BMP180;10205;49.678;6.560;2023-05-07T11:10:49;99871.00;;;22.80
20092;BMP180;10205;49.678;6.560;2023-05-07T11:13:18;99870.00;;;22.90
20092;BMP180;10205;49.678;6.560;2023-05-07T11:15:48;99878.00;;;22.90
20092;BMP180;10205;49.678;6.560;2023-05-07T11:18:17;99870.00;;;22.90
20092;BMP180;10205;49.678;6.560;2023-05-07T11:20:50;99868.00;;;23.00
20092;BMP180;10205;49.678;6.560;2023-05-07T11:24:07;99867.00;;;23.00
20092;BMP180;10205;49.678;6.560;2023-05-07T11:26:52;99869.00;;;23.10
20092;BMP180;10205;49.678;6.560;2023-05-07T11:29:21;99862.00;;;23.10
20092;BMP180;10205;49.678;6.560;2023-05-07T11:31:50;99872.00;;;23.20
20092;BMP180;10205;49.678;6.560;2023-05-07T11:34:21;99872.00;;;23.20
20092;BMP180;10205;49.678;6.560;2023-05-07T11:36:49;99864.00;;;23.30
20092;BMP180;10205;49.678;6.560;2023-05-07T11:39:28;99858.00;;;23.30
20092;BMP180;10205;49.678;6.560;2023-05-07T11:41:57;99865.00;;;23.40
20092;BMP180;10205;49.678;6.560;2023-05-07T11:44:24;99859.00;;;23.40
20092;BMP180;10205;49.678;6.560;2023-05-07T11:46:56;99865.00;;;23.40
20092;BMP180;10205;49.678;6.560;2023-05-07T11:49:26;99877.00;;;23.50
20092;BMP180;10205;49.678;6.560;2023-05-07T11:51:56;99867.00;;;23.50
20092;BMP180;10205;49.678;6.560;2023-05-07T11:54:23;99863.00;;;23.60
20092;BMP180;10205;49.678;6.560;2023-05-07T11:56:50;99868.00;;;23.60
20092;BMP180;10205;49.678;6.560;2023-05-07T11:59:18;99869.00;;;23.70
20092;BMP180;10205;49.678;6.560;2023-05-07T12:01:48;99865.00;;;23.70
20092;BMP180;10205;49.678;6.560;2023-05-07T12:04:20;99874.00;;;23.80
20092;BMP180;10205;49.678;6.560;2023-05-07T12:06:47;99868.00;;;23.90
20092;BMP180;10205;49.678;6.560;2023-05-07T12:09:17;99871.00;;;23.90
20092;BMP180;10205;49.678;6.560;2023-05-07T12:11:46;99866.00;;;23.90
20092;BMP180;10205;49.678;6.560;2023-05-07T12:14:13;99871.00;;;24.00
20092;BMP180;10205;49.678;6.560;2023-05-07T12:16:42;99873.00;;;24.00
20092;BMP180;10205;49.678;6.560;2023-05-07T12:19:10;99869.00;;;24.10
20092;BMP180;10205;49.678;6.560;2023-05-07T12:21:40;99881.00;;;24.10
20092;BMP180;10205;49.678;6.560;2023-05-07T12:24:08;99875.00;;;24.20
20092;BMP180;10205;49.678;6.560;2023-05-07T12:26:38;99871.00;;;24.20
20092;BMP180;10205;49.678;6.560;2023-05-07T12:29:06;99870.00;;;24.30
20092;BMP180;10205;49.678;6.560;2023-05-07T12:31:34;99857.00;;;24.30
20092;BMP180;10205;49.678;6.560;2023-05-07T12:34:02;99863.00;;;24.30
20092;BMP180;10205;49.678;6.560;2023-05-07T12:36:37;99858.00;;;24.40
20092;BMP180;10205;49.678;6.560;2023-05-07T12:39:07;99855.00;;;24.40
20092;BMP180;10205;49.678;6.560;2023-05-07T12:41:52;99858.00;;;24.50
20092;BMP180;10205;49.678;6.560;2023-05-07T12:44:22;99859.00;;;24.50
20092;BMP180;10205;49.678;6.560;2023-05-07T12:46:49;99867.00;;;24.60
20092;BMP180;10205;49.678;6.560;2023-05-07T12:49:16;99854.00;;;24.60
20092;BMP180;10205;49.678;6.560;2023-05-07T12:51:46;99868.00;;;24.60
20092;BMP180;10205;49.678;6.560;2023-05-07T12:54:27;99862.00;;;24.70
20092;BMP180;10205;49.678;6.560;2023-05-07T12:57:01;99868.00;;;24.70
20092;BMP180;10205;49.678;6.560;2023-05-07T12:59:34;99866.00;;;24.70
20092;BMP180;10205;49.678;6.560;2023-05-07T13:02:01;99861.00;;;24.80
20092;BMP180;10205;49.678;6.560;2023-05-07T13:04:28;99863.00;;;24.80
20092;BMP180;10205;49.678;6.560;2023-05-07T13:06:55;99865.00;;;24.90
20092;BMP180;10205;49.678;6.560;2023-05-07T13:09:24;99861.00;;;24.90
20092;BMP180;10205;49.678;6.560;2023-05-07T13:11:51;99866.00;;;25.00
20092;BMP180;10205;49.678;6.560;2023-05-07T13:14:24;99865.00;;;25.00
20092;BMP180;10205;49.678;6.560;2023-05-07T13:16:51;99879.00;;;25.00
20092;BMP180;10205;49.678;6.560;2023-05-07T13:19:18;99872.00;;;25.00
20092;BMP180;10205;49.678;6.560;2023-05-07T13:21:45;99872.00;;;25.10
20092;BMP180;10205;49.678;6.560;2023-05-07T13:24:12;99871.00;;;25.10
20092;BMP180;10205;49.678;6.560;2023-05-07T13:26:43;99869.00;;;25.10
20092;BMP180;10205;49.678;6.560;2023-05-07T13:29:13;99867.00;;;25.20
20092;BMP180;10205;49.678;6.560;2023-05-07T13:31:40;99872.00;;;25.20
20092;BMP180;10205;49.678;6.560;2023-05-07T13:34:09;99872.00;;;25.20
20092;BMP180;10205;49.678;6.560;2023-05-07T13:36:37;99873.00;;;25.30
20092;BMP180;10205;49.678;6.560;2023-05-07T13:39:05;99871.00;;;25.30
20092;BMP180;10205;49.678;6.560;2023-05-07T13:41:32;99863.00;;;25.30
20092;BMP180;10205;49.678;6.560;2023-05-07T13:44:01;99875.00;;;25.30
20092;BMP180;10205;49.678;6.560;2023-05-07T13:46:28;99868.00;;;25.40
20092;BMP180;10205;49.678;6.560;2023-05-07T13:48:55;99871.00;;;25.40
20092;BMP180;10205;49.678;6.560;2023-05-07T13:51:23;99857.00;;;25.40
20092;BMP180;10205;49.678;6.560;2023-05-07T13:53:50;99868.00;;;25.40
20092;BMP180;10205;49.678;6.560;2023-05-07T13:56:18;99862.00;;;25.40
20092;BMP180;10205;49.678;6.560;2023-05-07T13:58:45;99869.00;;;25.50
20092;BMP180;10205;49.678;6.560;2023-05-07T14:01:14;99863.00;;;25.50
20092;BMP180;10205;49.678;6.560;2023-05-07T14:03:41;99868.00;;;25.50
20092;BMP180;10205;49.678;6.560;2023-05-07T14:06:08;99859.00;;;25.50
20092;BMP180;10205;49.678;6.560;2023-05-07T14:08:35;99860.00;;;25.50
20092;BMP180;10205;49.678;6.560;2023-05-07T14:11:02;99871.00;;;25.60
20092;BMP180;10205;49.678;6.560;2023-05-07T14:13:30;99863.00;;;25.60
20092;BMP180;10205;49.678;6.560;2023-05-07T14:15:57;99866.00;;;25.60
20092;BMP180;10205;49.678;6.560;2023-05-07T14:18:26;99865.00;;;25.60